In Rescue
 
Open Full Screen Window  High Contrast Mode
Wind Gusting 00 knots
08
September 19, 2019 5:55 PM EDT
Weather Information
Wind Direction
  100 °
Wind Speed
  08 kt (9 mph)
Wind Gust
  00 kt (0 mph)
Altimeter
30.09 in
Visibility
10 SM
Temperature
26° C
79° F
Dewpoint
14° C
57° F
Humidity
48%
1hr Rain Fall
00.00 in.
24hr Rain Fall
00.00 in.
Sky Condition
Clear
VFR

METAR KY31 192155Z AUTO 10008KT 10SM CLR 26/14 A3009 RMK AO2 T02600144

FAA Disclaimer: The data displayed is for advisory purposes only and is not to be used for flight planning or operations.